sensor_id;sensor_type;location;lat;lon;timestamp;pressure;altitude;pressure_sealevel;temperature;humidity
46598;BME280;32318;48.858;8.252;2022-07-18T00:07:27;100935.47;;;20.51;40.20
46598;BME280;32318;48.858;8.252;2022-07-18T00:15:27;100937.59;;;20.36;40.24
46598;BME280;32318;48.858;8.252;2022-07-18T00:23:27;100935.97;;;20.08;40.82
46598;BME280;32318;48.858;8.252;2022-07-18T00:31:28;100928.25;;;20.05;40.89
46598;BME280;32318;48.858;8.252;2022-07-18T00:39:28;100930.31;;;20.16;40.40
46598;BME280;32318;48.858;8.252;2022-07-18T00:47:28;100930.53;;;20.01;40.70
46598;BME280;32318;48.858;8.252;2022-07-18T00:55:29;100930.31;;;19.69;41.38
46598;BME280;32318;48.858;8.252;2022-07-18T01:03:29;100934.06;;;19.48;41.59
46598;BME280;32318;48.858;8.252;2022-07-18T01:11:29;100923.63;;;19.45;41.54
46598;BME280;32318;48.858;8.252;2022-07-18T01:19:30;100928.63;;;19.48;41.20
46598;BME280;32318;48.858;8.252;2022-07-18T01:27:30;100931.13;;;19.36;41.49
46598;BME280;32318;48.858;8.252;2022-07-18T01:35:31;100924.84;;;19.22;42.01
46598;BME280;32318;48.858;8.252;2022-07-18T01:43:31;100929.38;;;19.08;42.58
46598;BME280;32318;48.858;8.252;2022-07-18T01:51:31;100915.81;;;19.02;42.57
46598;BME280;32318;48.858;8.252;2022-07-18T01:59:32;100908.91;;;18.92;43.24
46598;BME280;32318;48.858;8.252;2022-07-18T02:07:35;100925.34;;;18.49;45.00
46598;BME280;32318;48.858;8.252;2022-07-18T02:15:36;100920.25;;;18.32;45.60
46598;BME280;32318;48.858;8.252;2022-07-18T02:23:36;100914.00;;;18.25;46.04
46598;BME280;32318;48.858;8.252;2022-07-18T02:31:37;100918.09;;;18.21;46.58
46598;BME280;32318;48.858;8.252;2022-07-18T02:39:37;100912.03;;;18.12;47.05
46598;BME280;32318;48.858;8.252;2022-07-18T02:47:37;100905.81;;;18.12;47.17
46598;BME280;32318;48.858;8.252;2022-07-18T02:55:38;100910.78;;;17.86;48.21
46598;BME280;32318;48.858;8.252;2022-07-18T03:03:38;100911.34;;;17.53;49.23
46598;BME280;32318;48.858;8.252;2022-07-18T03:11:38;100908.13;;;17.43;49.87
46598;BME280;32318;48.858;8.252;2022-07-18T03:19:39;100914.56;;;17.42;50.01
46598;BME280;32318;48.858;8.252;2022-07-18T03:27:39;100902.94;;;17.42;50.38
46598;BME280;32318;48.858;8.252;2022-07-18T03:35:39;100905.94;;;17.32;50.66
46598;BME280;32318;48.858;8.252;2022-07-18T03:43:40;100903.31;;;17.38;50.41
46598;BME280;32318;48.858;8.252;2022-07-18T03:51:40;100901.38;;;17.32;50.96
46598;BME280;32318;48.858;8.252;2022-07-18T03:59:40;100902.53;;;17.45;50.59
46598;BME280;32318;48.858;8.252;2022-07-18T04:07:43;100900.09;;;17.50;50.57
46598;BME280;32318;48.858;8.252;2022-07-18T04:15:43;100910.56;;;17.60;50.27
46598;BME280;32318;48.858;8.252;2022-07-18T04:23:44;100916.47;;;17.70;50.19
46598;BME280;32318;48.858;8.252;2022-07-18T04:31:44;100924.81;;;17.75;49.97
46598;BME280;32318;48.858;8.252;2022-07-18T04:39:44;100912.53;;;17.72;49.93
46598;BME280;32318;48.858;8.252;2022-07-18T04:47:45;100917.81;;;17.81;49.59
46598;BME280;32318;48.858;8.252;2022-07-18T04:55:45;100925.53;;;17.84;49.74
46598;BME280;32318;48.858;8.252;2022-07-18T05:03:45;100924.47;;;18.07;49.39
46598;BME280;32318;48.858;8.252;2022-07-18T05:11:45;100929.88;;;18.07;49.53
46598;BME280;32318;48.858;8.252;2022-07-18T05:19:46;100942.56;;;18.06;49.83
46598;BME280;32318;48.858;8.252;2022-07-18T05:27:46;100939.78;;;18.28;50.19
46598;BME280;32318;48.858;8.252;2022-07-18T05:35:46;100949.84;;;18.41;50.10
46598;BME280;32318;48.858;8.252;2022-07-18T05:43:46;100940.16;;;18.60;49.65
46598;BME280;32318;48.858;8.252;2022-07-18T05:51:47;100938.09;;;19.04;48.75
46598;BME280;32318;48.858;8.252;2022-07-18T05:59:47;100934.44;;;19.45;47.73
46598;BME280;32318;48.858;8.252;2022-07-18T06:07:47;100925.34;;;20.06;46.55
46598;BME280;32318;48.858;8.252;2022-07-18T06:15:48;100932.28;;;20.75;44.70
46598;BME280;32318;48.858;8.252;2022-07-18T06:23:48;100928.81;;;21.06;43.49
46598;BME280;32318;48.858;8.252;2022-07-18T06:31:48;100914.72;;;21.23;42.97
46598;BME280;32318;48.858;8.252;2022-07-18T06:39:48;100925.66;;;21.41;42.61
46598;BME280;32318;48.858;8.252;2022-07-18T06:47:49;100927.75;;;21.71;41.88
46598;BME280;32318;48.858;8.252;2022-07-18T06:55:49;100933.13;;;22.03;40.74
46598;BME280;32318;48.858;8.252;2022-07-18T07:03:50;100936.09;;;22.20;40.37
46598;BME280;32318;48.858;8.252;2022-07-18T07:11:50;100927.78;;;22.34;38.86
46598;BME280;32318;48.858;8.252;2022-07-18T07:19:51;100930.03;;;22.62;37.98
46598;BME280;32318;48.858;8.252;2022-07-18T07:27:52;100935.84;;;22.84;37.48
46598;BME280;32318;48.858;8.252;2022-07-18T07:35:53;100943.28;;;23.08;37.58
46598;BME280;32318;48.858;8.252;2022-07-18T07:43:53;100939.50;;;23.39;35.98
46598;BME280;32318;48.858;8.252;2022-07-18T07:51:54;100937.22;;;23.67;36.15
46598;BME280;32318;48.858;8.252;2022-07-18T07:59:54;100924.69;;;24.01;35.55
46598;BME280;32318;48.858;8.252;2022-07-18T08:07:55;100913.91;;;24.18;34.63
46598;BME280;32318;48.858;8.252;2022-07-18T08:15:56;100924.84;;;24.59;33.91
46598;BME280;32318;48.858;8.252;2022-07-18T08:23:56;100916.53;;;24.78;33.65
46598;BME280;32318;48.858;8.252;2022-07-18T08:31:57;100920.94;;;25.08;33.08
46598;BME280;32318;48.858;8.252;2022-07-18T08:39:57;100907.41;;;25.30;32.69
46598;BME280;32318;48.858;8.252;2022-07-18T08:47:57;100904.88;;;25.40;33.01
46598;BME280;32318;48.858;8.252;2022-07-18T08:55:58;100892.84;;;25.75;32.80
46598;BME280;32318;48.858;8.252;2022-07-18T09:03:58;100885.50;;;26.15;32.80
46598;BME280;32318;48.858;8.252;2022-07-18T09:12:18;100896.09;;;26.51;32.05
46598;BME280;32318;48.858;8.252;2022-07-18T09:20:18;100885.28;;;26.83;31.82
46598;BME280;32318;48.858;8.252;2022-07-18T09:28:19;100882.09;;;27.24;30.70
46598;BME280;32318;48.858;8.252;2022-07-18T09:36:19;100886.38;;;27.42;30.82
46598;BME280;32318;48.858;8.252;2022-07-18T09:44:20;100880.63;;;27.76;30.40
46598;BME280;32318;48.858;8.252;2022-07-18T09:52:21;100874.03;;;28.15;29.26
46598;BME280;32318;48.858;8.252;2022-07-18T10:00:21;100865.94;;;28.51;28.92
46598;BME280;32318;48.858;8.252;2022-07-18T10:08:23;100851.22;;;28.83;28.49
46598;BME280;32318;48.858;8.252;2022-07-18T10:16:24;100856.19;;;29.12;28.86
46598;BME280;32318;48.858;8.252;2022-07-18T10:24:25;100858.41;;;29.41;27.80
46598;BME280;32318;48.858;8.252;2022-07-18T10:32:33;100835.59;;;29.51;28.21
46598;BME280;32318;48.858;8.252;2022-07-18T10:40:34;100827.53;;;29.80;27.47
46598;BME280;32318;48.858;8.252;2022-07-18T11:04:39;100812.97;;;30.45;26.52
46598;BME280;32318;48.858;8.252;2022-07-18T11:12:39;100808.00;;;30.47;26.90
46598;BME280;32318;48.858;8.252;2022-07-18T11:20:41;100794.44;;;30.61;27.13
46598;BME280;32318;48.858;8.252;2022-07-18T11:28:42;100804.84;;;31.09;26.07
46598;BME280;32318;48.858;8.252;2022-07-18T11:36:44;100797.06;;;31.17;25.19
46598;BME280;32318;48.858;8.252;2022-07-18T11:44:46;100791.94;;;31.34;25.18
46598;BME280;32318;48.858;8.252;2022-07-18T11:52:56;100786.50;;;31.53;25.52
46598;BME280;32318;48.858;8.252;2022-07-18T12:00:58;100775.91;;;31.90;25.25
46598;BME280;32318;48.858;8.252;2022-07-18T12:08:59;100771.97;;;31.96;24.23
46598;BME280;32318;48.858;8.252;2022-07-18T12:17:06;100761.69;;;32.02;24.58
46598;BME280;32318;48.858;8.252;2022-07-18T12:25:07;100753.53;;;32.11;24.26
46598;BME280;32318;48.858;8.252;2022-07-18T12:33:08;100755.28;;;32.26;23.85
46598;BME280;32318;48.858;8.252;2022-07-18T12:41:09;100751.84;;;32.53;23.49
46598;BME280;32318;48.858;8.252;2022-07-18T12:49:09;100752.44;;;32.69;23.03
46598;BME280;32318;48.858;8.252;2022-07-18T12:57:09;100744.47;;;33.00;22.07
46598;BME280;32318;48.858;8.252;2022-07-18T13:05:10;100743.47;;;33.24;22.03
46598;BME280;32318;48.858;8.252;2022-07-18T13:13:10;100728.97;;;33.33;21.79
46598;BME280;32318;48.858;8.252;2022-07-18T13:21:10;100721.91;;;33.54;20.60
46598;BME280;32318;48.858;8.252;2022-07-18T13:29:12;100713.16;;;33.47;20.93
46598;BME280;32318;48.858;8.252;2022-07-18T13:37:13;100720.34;;;33.90;20.11
46598;BME280;32318;48.858;8.252;2022-07-18T13:45:13;100699.63;;;33.87;20.29
46598;BME280;32318;48.858;8.252;2022-07-18T13:53:15;100703.19;;;34.02;19.75
46598;BME280;32318;48.858;8.252;2022-07-18T14:01:15;100688.97;;;34.17;19.82
46598;BME280;32318;48.858;8.252;2022-07-18T14:09:15;100683.94;;;34.19;19.45
46598;BME280;32318;48.858;8.252;2022-07-18T14:17:16;100678.47;;;34.28;19.24
46598;BME280;32318;48.858;8.252;2022-07-18T14:25:17;100659.25;;;34.32;19.04
46598;BME280;32318;48.858;8.252;2022-07-18T14:33:18;100662.03;;;34.54;18.93
46598;BME280;32318;48.858;8.252;2022-07-18T14:41:18;100647.56;;;34.58;18.63
46598;BME280;32318;48.858;8.252;2022-07-18T14:49:19;100641.81;;;34.54;18.44
46598;BME280;32318;48.858;8.252;2022-07-18T14:57:19;100638.38;;;34.48;18.92
46598;BME280;32318;48.858;8.252;2022-07-18T15:05:19;100642.50;;;34.60;18.33
46598;BME280;32318;48.858;8.252;2022-07-18T15:13:20;100624.34;;;34.53;18.28
46598;BME280;32318;48.858;8.252;2022-07-18T15:21:20;100635.53;;;34.39;18.49
46598;BME280;32318;48.858;8.252;2022-07-18T15:29:21;100628.78;;;34.32;18.43
46598;BME280;32318;48.858;8.252;2022-07-18T15:37:21;100616.16;;;34.25;18.85
46598;BME280;32318;48.858;8.252;2022-07-18T15:45:21;100619.94;;;34.30;18.81
46598;BME280;32318;48.858;8.252;2022-07-18T15:53:22;100596.31;;;34.32;18.94
46598;BME280;32318;48.858;8.252;2022-07-18T16:01:22;100601.94;;;34.18;18.87
46598;BME280;32318;48.858;8.252;2022-07-18T16:09:22;100594.09;;;34.12;18.53
46598;BME280;32318;48.858;8.252;2022-07-18T16:17:23;100574.56;;;33.94;18.90
46598;BME280;32318;48.858;8.252;2022-07-18T16:25:23;100564.50;;;33.84;19.53
46598;BME280;32318;48.858;8.252;2022-07-18T16:33:23;100563.00;;;33.78;19.57
46598;BME280;32318;48.858;8.252;2022-07-18T16:41:25;100551.66;;;33.66;19.44
46598;BME280;32318;48.858;8.252;2022-07-18T16:49:25;100548.13;;;33.51;20.03
46598;BME280;32318;48.858;8.252;2022-07-18T16:57:35;100539.00;;;33.51;20.09
46598;BME280;32318;48.858;8.252;2022-07-18T17:05:38;100538.38;;;33.54;19.91
46598;BME280;32318;48.858;8.252;2022-07-18T17:13:41;100527.09;;;33.50;20.24
46598;BME280;32318;48.858;8.252;2022-07-18T17:21:46;100531.63;;;33.46;20.37
46598;BME280;32318;48.858;8.252;2022-07-18T17:29:49;100526.94;;;33.33;20.76
46598;BME280;32318;48.858;8.252;2022-07-18T17:37:51;100522.03;;;33.15;20.72
46598;BME280;32318;48.858;8.252;2022-07-18T17:45:51;100516.72;;;33.05;20.95
46598;BME280;32318;48.858;8.252;2022-07-18T17:53:53;100520.44;;;32.87;20.82
46598;BME280;32318;48.858;8.252;2022-07-18T18:01:56;100511.38;;;32.67;21.49
46598;BME280;32318;48.858;8.252;2022-07-18T18:09:56;100506.28;;;32.46;21.93
46598;BME280;32318;48.858;8.252;2022-07-18T18:17:56;100514.44;;;32.37;21.16
46598;BME280;32318;48.858;8.252;2022-07-18T18:25:57;100512.53;;;32.19;21.93
46598;BME280;32318;48.858;8.252;2022-07-18T18:33:57;100525.13;;;32.11;21.40
46598;BME280;32318;48.858;8.252;2022-07-18T18:41:59;100522.94;;;31.75;22.25
46598;BME280;32318;48.858;8.252;2022-07-18T18:49:59;100537.38;;;31.48;22.19
46598;BME280;32318;48.858;8.252;2022-07-18T18:58:00;100528.13;;;31.19;22.66
46598;BME280;32318;48.858;8.252;2022-07-18T19:06:02;100534.88;;;30.83;23.43
46598;BME280;32318;48.858;8.252;2022-07-18T19:14:02;100526.94;;;30.52;24.02
46598;BME280;32318;48.858;8.252;2022-07-18T19:22:02;100524.25;;;30.18;24.82
46598;BME280;32318;48.858;8.252;2022-07-18T19:30:03;100538.25;;;29.82;25.67
46598;BME280;32318;48.858;8.252;2022-07-18T19:47:05;100548.38;;;29.52;27.22
46598;BME280;32318;48.858;8.252;2022-07-18T19:55:06;100557.53;;;29.32;27.38
46598;BME280;32318;48.858;8.252;2022-07-18T20:03:07;100556.84;;;29.00;27.69
46598;BME280;32318;48.858;8.252;2022-07-18T20:20:23;100555.03;;;28.39;29.10
46598;BME280;32318;48.858;8.252;2022-07-18T20:28:25;100542.94;;;28.19;29.75
46598;BME280;32318;48.858;8.252;2022-07-18T20:36:27;100537.69;;;27.97;30.07
46598;BME280;32318;48.858;8.252;2022-07-18T20:44:27;100541.47;;;27.54;30.68
46598;BME280;32318;48.858;8.252;2022-07-18T20:52:30;100549.13;;;27.42;30.92
46598;BME280;32318;48.858;8.252;2022-07-18T21:00:31;100544.91;;;27.14;31.23
46598;BME280;32318;48.858;8.252;2022-07-18T21:08:32;100542.00;;;26.83;31.90
46598;BME280;32318;48.858;8.252;2022-07-18T21:16:32;100529.31;;;26.71;32.18
46598;BME280;32318;48.858;8.252;2022-07-18T21:24:34;100541.25;;;26.55;32.33
46598;BME280;32318;48.858;8.252;2022-07-18T21:32:35;100543.91;;;26.39;32.70
46598;BME280;32318;48.858;8.252;2022-07-18T21:40:36;100546.03;;;26.32;32.89
46598;BME280;32318;48.858;8.252;2022-07-18T21:48:37;100552.03;;;26.29;33.16
46598;BME280;32318;48.858;8.252;2022-07-18T21:56:37;100545.97;;;26.22;33.52
46598;BME280;32318;48.858;8.252;2022-07-18T22:04:37;100549.78;;;26.21;33.72
46598;BME280;32318;48.858;8.252;2022-07-18T22:12:38;100544.84;;;26.18;33.25
46598;BME280;32318;48.858;8.252;2022-07-18T22:20:42;100542.81;;;26.08;33.35
46598;BME280;32318;48.858;8.252;2022-07-18T22:28:47;100532.03;;;25.96;33.80
46598;BME280;32318;48.858;8.252;2022-07-18T22:36:48;100528.66;;;25.83;33.98
46598;BME280;32318;48.858;8.252;2022-07-18T22:45:03;100521.63;;;25.65;33.86
46598;BME280;32318;48.858;8.252;2022-07-18T22:53:03;100524.97;;;25.45;34.33
46598;BME280;32318;48.858;8.252;2022-07-18T23:01:04;100522.28;;;25.28;34.67
46598;BME280;32318;48.858;8.252;2022-07-18T23:09:05;100519.19;;;25.19;34.87
46598;BME280;32318;48.858;8.252;2022-07-18T23:17:05;100517.41;;;24.86;35.90
46598;BME280;32318;48.858;8.252;2022-07-18T23:25:08;100511.88;;;24.64;36.11
46598;BME280;32318;48.858;8.252;2022-07-18T23:33:09;100500.84;;;24.36;36.70
46598;BME280;32318;48.858;8.252;2022-07-18T23:41:09;100508.66;;;24.27;36.78
46598;BME280;32318;48.858;8.252;2022-07-18T23:49:09;100494.09;;;24.05;37.15
46598;BME280;32318;48.858;8.252;2022-07-18T23:57:10;100491.19;;;23.94;38.19
